createdAt,value
2024-01-22T00:00:41.796Z,67.37
2024-01-22T00:05:38.707Z,67.28
2024-01-22T00:10:35.483Z,67.39
2024-01-22T00:15:32.861Z,67.31
2024-01-22T00:20:29.626Z,67.87
2024-01-22T00:25:26.476Z,67.88
2024-01-22T00:30:23.089Z,67.87
2024-01-22T00:35:20.235Z,68.10
2024-01-22T00:40:16.821Z,68.28
2024-01-22T00:45:13.331Z,68.41
2024-01-22T00:50:10.442Z,68.33
2024-01-22T00:55:07.247Z,68.51
2024-01-22T01:00:03.913Z,68.33
2024-01-22T01:05:00.722Z,68.71
2024-01-22T01:09:57.358Z,68.64
2024-01-22T01:14:53.916Z,68.58
2024-01-22T01:19:50.631Z,68.79
2024-01-22T01:24:47.252Z,68.77
2024-01-22T01:29:44.034Z,68.69
2024-01-22T01:34:40.668Z,68.67
2024-01-22T01:39:37.431Z,68.91
2024-01-22T01:44:40.137Z,68.63
2024-01-22T01:49:36.682Z,68.46
2024-01-22T01:54:33.375Z,68.65
2024-01-22T01:59:29.968Z,68.62
2024-01-22T02:04:44.442Z,68.28
2024-01-22T02:09:48.830Z,68.60
2024-01-22T02:15:11.640Z,68.65
2024-01-22T05:13:00.292Z,72.58
2024-01-22T05:17:57.256Z,73.04
2024-01-22T08:33:01.222Z,76.54
2024-01-22T08:37:57.804Z,76.85
2024-01-22T08:42:56.056Z,76.55
2024-01-22T08:47:53.011Z,77.07
2024-01-22T08:52:50.637Z,77.26
2024-01-22T08:57:47.310Z,77.21
2024-01-22T09:02:44.550Z,76.73
2024-01-22T09:07:43.235Z,76.79
2024-01-22T09:12:39.998Z,77.29
2024-01-22T09:17:38.193Z,77.36
2024-01-22T09:22:34.880Z,77.13
2024-01-22T09:27:31.679Z,76.99
2024-01-22T09:32:28.053Z,76.94
2024-01-22T09:37:24.696Z,77.26
2024-01-22T09:42:21.334Z,77.30
2024-01-22T09:47:18.195Z,77.32
2024-01-22T09:52:18.344Z,77.34
2024-01-22T09:57:18.135Z,77.68
2024-01-22T10:02:17.172Z,77.66
2024-01-22T10:07:17.202Z,77.31
2024-01-22T14:12:06.121Z,78.29
2024-01-22T14:58:32.597Z,76.11
2024-01-22T15:03:40.841Z,75.44
2024-01-22T15:08:39.468Z,75.42
2024-01-22T15:23:59.177Z,74.20
2024-01-22T16:48:07.325Z,70.26
